UNKL

Yemelyanovo Airport

Airport
ICAO code
UNKL
IATA Code
KJA
Summary
ICAO Region
EUR
ICAO Territory
Location

Krasnoyarsk, Krasnoyarsk Krai

Serving
Krasnoyarsk
Elevation
942 ft
Coordinates
56° 10' 48" N , 92° 28' 30" E
Metar
UNKL 241230Z 16001MPS 9000 NSC M21/M25 Q1032 R29/CLRD65 NOSIG RMK QFE748

Runways

Designator Length Width Surface Rops
11/29 3703 60 ASP Yes/Yes

Airport map

Aerial View

SKYbrary Partners:

Safety knowledge contributed by: